Time;durP1;ratioP1;P1;durP2;ratioP2;P2;SDS_P1;SDS_P2;PMS_P1;PMS_P2;Temp;Humidity;BMP_temperature;BMP_pressure;BME280_temperature;BME280_humidity;BME280_pressure;Samples;Min_cycle;Max_cycle;Signal;HPM_P1;HPM_P2
2022/07/30 00:01:23;;;;;;;3.92;1.83;;;26.60;75.60;;;;;;6336313;22;20408;-81
2022/07/30 00:03:49;;;;;;;3.58;2.03;;;26.70;75.70;;;;;;6336810;22;20082;-82
2022/07/30 00:06:14;;;;;;;1.80;1.65;;;26.70;75.70;;;;;;6337423;22;20061;-82
2022/07/30 00:08:40;;;;;;;1.58;1.48;;;26.70;75.80;;;;;;6337158;22;20287;-82
2022/07/30 00:11:06;;;;;;;1.70;1.60;;;26.70;75.90;;;;;;6336854;22;20792;-82
2022/07/30 00:13:32;;;;;;;2.45;1.63;;;26.70;76.10;;;;;;6336617;22;20024;-82
2022/07/30 00:15:57;;;;;;;2.42;1.73;;;26.50;76.80;;;;;;6336823;22;20082;-82
2022/07/30 00:18:23;;;;;;;2.92;1.80;;;26.50;76.80;;;;;;6336813;22;20045;-83
2022/07/30 00:20:49;;;;;;;2.50;1.80;;;26.40;77.90;;;;;;6336672;22;20056;-83
2022/07/30 00:23:14;;;;;;;3.10;1.85;;;26.40;77.60;;;;;;6337853;22;20082;-83
2022/07/30 00:25:40;;;;;;;3.65;2.33;;;26.40;77.70;;;;;;6337264;22;19999;-83
2022/07/30 00:28:06;;;;;;;3.00;2.13;;;26.40;78.20;;;;;;6336708;22;19998;-83
2022/07/30 00:30:31;;;;;;;2.45;2.25;;;26.40;78.10;;;;;;6337098;22;20332;-82
2022/07/30 00:32:57;;;;;;;2.00;1.80;;;26.40;78.30;;;;;;6337098;22;20009;-82
2022/07/30 00:35:23;;;;;;;2.97;2.03;;;26.30;78.80;;;;;;6336289;22;20329;-82
2022/07/30 00:37:48;;;;;;;5.78;3.05;;;26.30;79.00;;;;;;6336482;22;19999;-82
2022/07/30 00:40:14;;;;;;;2.83;1.90;;;26.20;80.20;;;;;;6337085;22;20026;-82
2022/07/30 00:42:45;;;;;;;2.90;2.00;;;26.10;79.90;;;;;;6339023;22;20302;-82
2022/07/30 00:45:13;;;;;;;1.90;1.50;;;26.00;80.40;;;;;;6338102;22;20074;-82
2022/07/30 00:47:39;;;;;;;3.00;2.03;;;25.80;80.10;;;;;;6338059;22;20046;-82
2022/07/30 00:50:07;;;;;;;2.65;2.08;;;25.80;81.00;;;;;;6338442;22;19998;-82
2022/07/30 00:52:34;;;;;;;5.70;2.03;;;25.80;81.30;;;;;;6339150;22;20011;-83
2022/07/30 00:54:59;;;;;;;3.38;1.95;;;25.90;80.90;;;;;;6311155;22;20007;-83
2022/07/30 00:57:26;;;;;;;4.35;2.10;;;25.80;81.00;;;;;;6310314;22;20017;-83
2022/07/30 00:59:52;;;;;;;3.17;2.00;;;25.90;81.80;;;;;;6310750;22;20049;-82
2022/07/30 01:02:18;;;;;;;4.72;2.10;;;25.90;82.20;;;;;;6338210;22;20021;-83
2022/07/30 01:04:44;;;;;;;3.47;2.28;;;25.90;82.40;;;;;;6338245;22;20078;-83
2022/07/30 01:07:10;;;;;;;3.45;1.80;;;25.90;82.30;;;;;;6339015;22;20048;-82
2022/07/30 01:09:36;;;;;;;3.08;1.80;;;25.90;82.10;;;;;;6337423;22;20006;-81
2022/07/30 01:12:02;;;;;;;3.17;1.70;;;25.90;82.00;;;;;;6311131;22;20046;-82
2022/07/30 01:14:28;;;;;;;4.15;2.20;;;25.90;82.00;;;;;;6339086;22;20006;-82
2022/07/30 01:16:54;;;;;;;4.20;2.08;;;25.90;82.10;;;;;;6338505;22;20034;-81
2022/07/30 01:22:16;;;;;;;3.70;2.42;;;25.90;82.50;;;;;;6338330;22;20013;-80
2022/07/30 01:24:50;;;;;;;2.90;2.00;;;25.90;82.40;;;;;;6337510;22;20007;-80
2022/07/30 01:27:18;;;;;;;4.07;2.40;;;25.90;82.30;;;;;;6337444;22;19998;-80
2022/07/30 01:29:45;;;;;;;3.30;2.33;;;25.80;82.20;;;;;;6337210;22;20072;-80
2022/07/30 01:32:13;;;;;;;4.25;2.55;;;25.70;82.10;;;;;;6338093;22;20029;-80
2022/07/30 01:34:41;;;;;;;4.57;2.30;;;25.70;82.00;;;;;;6338031;22;20014;-81
2022/07/30 01:37:09;;;;;;;4.70;2.55;;;25.70;82.30;;;;;;6338001;22;20405;-81
2022/07/30 01:39:37;;;;;;;5.35;1.83;;;25.70;82.60;;;;;;6337449;22;20006;-81
2022/07/30 01:42:06;;;;;;;4.78;2.28;;;25.70;82.40;;;;;;6338255;22;20005;-80
2022/07/30 01:44:32;;;;;;;3.30;2.33;;;25.70;83.00;;;;;;6337495;22;20294;-81
2022/07/30 01:47:00;;;;;;;3.22;2.13;;;25.70;83.60;;;;;;6338841;22;19999;-82
2022/07/30 01:49:28;;;;;;;3.00;2.17;;;25.70;83.70;;;;;;6338849;22;19998;-81
2022/07/30 01:51:54;;;;;;;1.95;1.65;;;25.70;83.60;;;;;;6337751;22;19999;-81
2022/07/30 01:54:22;;;;;;;4.68;2.22;;;25.80;83.70;;;;;;6338369;22;20003;-81
2022/07/30 01:56:52;;;;;;;3.63;2.13;;;25.70;83.20;;;;;;6337670;22;20321;-82
2022/07/30 01:59:20;;;;;;;4.22;2.85;;;25.70;83.40;;;;;;6337945;22;20306;-81
2022/07/30 02:01:46;;;;;;;3.38;3.03;;;25.60;84.10;;;;;;6337459;22;20018;-81
2022/07/30 02:04:11;;;;;;;3.75;2.42;;;25.60;84.30;;;;;;6337601;22;20336;-81
2022/07/30 02:06:41;;;;;;;3.05;2.72;;;25.50;84.00;;;;;;6338141;22;20044;-82
2022/07/30 02:09:08;;;;;;;4.60;3.50;;;25.50;84.80;;;;;;6338008;22;20056;-81
2022/07/30 02:14:42;;;;;;;4.35;2.30;;;25.40;84.80;;;;;;6338261;22;20013;-81
2022/07/30 02:17:14;;;;;;;3.55;2.90;;;25.40;84.60;;;;;;6337377;22;20367;-81
2022/07/30 02:19:44;;;;;;;3.13;2.78;;;25.40;84.70;;;;;;6338010;22;20055;-81
2022/07/30 02:22:14;;;;;;;2.08;1.88;;;25.40;84.30;;;;;;6337993;22;20408;-80
2022/07/30 02:24:41;;;;;;;2.95;2.30;;;25.40;83.90;;;;;;6337418;22;20010;-81
2022/07/30 02:27:18;;;;;;;4.22;1.88;;;25.40;83.80;;;;;;6337168;22;20041;-82
2022/07/30 02:29:46;;;;;;;3.35;2.22;;;25.40;83.70;;;;;;6337346;22;20406;-81
2022/07/30 02:32:16;;;;;;;2.63;2.17;;;25.40;83.40;;;;;;6337676;22;20006;-81
2022/07/30 02:34:46;;;;;;;4.22;2.72;;;25.40;83.50;;;;;;6337873;22;20033;-81
2022/07/30 02:37:13;;;;;;;4.20;2.10;;;25.50;84.00;;;;;;6336446;22;19999;-80
2022/07/30 02:39:42;;;;;;;3.45;2.58;;;25.50;84.00;;;;;;6338055;22;20002;-81
2022/07/30 02:42:09;;;;;;;3.42;2.30;;;25.60;83.70;;;;;;6338168;22;20003;-81
2022/07/30 02:44:37;;;;;;;2.28;2.00;;;25.60;83.40;;;;;;6337874;22;19999;-81
2022/07/30 02:47:04;;;;;;;2.63;2.00;;;25.60;83.40;;;;;;6336753;22;20310;-81
2022/07/30 02:49:34;;;;;;;3.40;2.65;;;25.60;83.60;;;;;;6338007;22;20076;-81
2022/07/30 02:52:03;;;;;;;5.88;3.78;;;25.60;83.30;;;;;;6337605;22;20440;-81
2022/07/30 02:54:31;;;;;;;4.47;2.10;;;25.20;84.70;;;;;;6338288;22;20002;-81
2022/07/30 02:56:59;;;;;;;3.00;2.35;;;25.10;84.40;;;;;;6337051;22;20410;-81
2022/07/30 02:59:27;;;;;;;2.45;2.22;;;25.10;84.60;;;;;;6337416;22;20003;-81
2022/07/30 03:01:54;;;;;;;4.50;3.75;;;25.10;85.10;;;;;;6337217;22;20018;-81
2022/07/30 03:04:20;;;;;;;3.42;2.60;;;24.80;86.80;;;;;;6337180;22;20131;-81
2022/07/30 03:06:48;;;;;;;3.58;2.88;;;24.90;85.80;;;;;;6336830;22;20002;-80
2022/07/30 03:09:15;;;;;;;6.05;3.47;;;24.90;86.20;;;;;;6337809;22;20002;-76
2022/07/30 03:11:42;;;;;;;3.78;3.45;;;24.90;86.30;;;;;;6336719;22;20482;-77
2022/07/30 03:14:07;;;;;;;4.32;3.63;;;25.00;86.20;;;;;;6337476;22;20029;-77
2022/07/30 03:16:37;;;;;;;5.93;4.43;;;25.00;86.20;;;;;;6336859;22;20305;-76
2022/07/30 03:19:08;;;;;;;4.07;3.67;;;24.90;86.90;;;;;;6337525;22;20006;-78
2022/07/30 03:21:36;;;;;;;5.60;3.63;;;24.80;86.50;;;;;;6336937;22;20399;-78
2022/07/30 03:24:03;;;;;;;5.68;3.75;;;24.80;86.40;;;;;;6337234;22;20026;-79
2022/07/30 03:26:29;;;;;;;5.07;4.57;;;24.80;86.60;;;;;;6336750;22;20003;-79
2022/07/30 03:28:56;;;;;;;5.10;4.03;;;24.80;87.20;;;;;;6338379;22;20070;-78
2022/07/30 03:31:21;;;;;;;6.82;5.43;;;24.80;86.70;;;;;;6338165;22;19995;-78
2022/07/30 03:33:48;;;;;;;6.05;5.43;;;24.80;87.60;;;;;;6336619;22;20462;-78
2022/07/30 03:36:15;;;;;;;7.82;7.03;;;24.80;87.60;;;;;;6308754;22;20418;-77
2022/07/30 03:38:41;;;;;;;10.23;5.97;;;24.60;88.80;;;;;;6337372;22;20025;-78
2022/07/30 03:41:09;;;;;;;8.63;4.85;;;24.40;89.80;;;;;;6336447;22;19998;-78
2022/07/30 03:43:35;;;;;;;5.65;4.97;;;24.40;89.40;;;;;;6336089;22;20006;-79
2022/07/30 03:46:02;;;;;;;8.13;4.88;;;24.40;89.40;;;;;;6336972;22;20002;-77
2022/07/30 03:48:30;;;;;;;6.97;5.13;;;24.40;89.10;;;;;;6337211;22;20005;-76
2022/07/30 03:50:56;;;;;;;8.82;6.85;;;24.30;90.00;;;;;;6337072;22;20444;-75
2022/07/30 03:53:23;;;;;;;8.18;6.60;;;24.30;90.20;;;;;;6337468;22;20021;-74
2022/07/30 03:55:51;;;;;;;9.75;8.15;;;24.10;90.50;;;;;;6337315;22;19999;-74
2022/07/30 03:58:17;;;;;;;10.52;7.10;;;24.00;90.80;;;;;;6336889;22;19999;-74
2022/07/30 04:00:48;;;;;;;7.97;6.70;;;23.90;91.10;;;;;;6308896;22;20078;-75
2022/07/30 04:03:26;;;;;;;8.75;7.78;;;23.80;91.20;;;;;;6309952;22;20512;-74
2022/07/30 04:05:52;;;;;;;9.55;8.00;;;23.70;91.30;;;;;;6335642;22;20413;-74
2022/07/30 04:08:18;;;;;;;7.38;5.97;;;23.60;91.70;;;;;;6336920;22;20799;-75
2022/07/30 04:10:44;;;;;;;8.02;5.78;;;23.60;91.90;;;;;;6336389;22;19995;-75
2022/07/30 04:13:09;;;;;;;5.18;4.63;;;23.70;91.60;;;;;;6336895;22;20003;-75
2022/07/30 04:15:53;;;;;;;5.47;4.10;;;23.90;91.00;;;;;;6336519;22;20030;-75
2022/07/30 04:18:19;;;;;;;6.80;5.38;;;24.10;90.70;;;;;;6338117;22;19999;-75
2022/07/30 04:20:47;;;;;;;5.07;4.38;;;24.10;90.50;;;;;;6339134;22;20029;-75
2022/07/30 04:23:14;;;;;;;5.05;3.78;;;24.20;90.40;;;;;;6338242;22;19999;-74
2022/07/30 04:25:42;;;;;;;7.35;4.70;;;24.20;90.00;;;;;;6337579;22;20027;-74
2022/07/30 04:28:09;;;;;;;9.00;4.95;;;24.30;90.00;;;;;;6336278;22;19998;-74
2022/07/30 04:30:35;;;;;;;5.38;3.92;;;24.50;89.40;;;;;;6335155;22;20014;-81
2022/07/30 04:33:03;;;;;;;5.07;3.47;;;24.50;88.70;;;;;;6338456;22;20082;-82
2022/07/30 04:35:32;;;;;;;7.35;4.50;;;24.60;88.40;;;;;;6339271;22;20005;-81
2022/07/30 04:37:59;;;;;;;6.50;3.65;;;24.70;88.40;;;;;;6312793;22;20090;-81
2022/07/30 04:40:25;;;;;;;4.20;3.80;;;24.60;87.90;;;;;;6340259;22;20074;-82
2022/07/30 04:42:50;;;;;;;4.82;4.05;;;24.70;87.70;;;;;;6339894;22;20417;-82
2022/07/30 04:45:19;;;;;;;5.72;4.20;;;24.70;87.50;;;;;;6339683;22;20420;-81
2022/07/30 04:47:46;;;;;;;3.92;3.50;;;24.80;87.50;;;;;;6340306;22;20005;-82
2022/07/30 04:50:14;;;;;;;5.22;4.20;;;24.80;87.40;;;;;;6340333;22;19995;-81
2022/07/30 04:52:40;;;;;;;5.03;3.70;;;24.80;87.10;;;;;;6340435;22;20011;-81
2022/07/30 04:55:10;;;;;;;5.70;4.28;;;24.90;87.00;;;;;;6339006;22;20010;-81
2022/07/30 04:57:39;;;;;;;5.05;3.90;;;24.90;87.10;;;;;;6339717;22;20278;-81
2022/07/30 05:00:06;;;;;;;6.00;4.18;;;25.00;87.10;;;;;;6340438;22;20009;-81
2022/07/30 05:02:34;;;;;;;5.45;4.30;;;25.00;87.00;;;;;;6339430;22;20018;-82
2022/07/30 05:05:01;;;;;;;4.57;4.13;;;25.10;87.10;;;;;;6310940;22;20007;-82
2022/07/30 05:07:28;;;;;;;5.20;4.45;;;25.10;86.80;;;;;;6312466;22;20026;-82
2022/07/30 05:09:54;;;;;;;7.63;5.95;;;25.10;86.50;;;;;;6339470;22;19994;-82
2022/07/30 05:12:20;;;;;;;6.57;5.07;;;25.10;86.30;;;;;;6339650;22;20006;-81
2022/07/30 05:14:46;;;;;;;6.82;5.25;;;25.00;86.30;;;;;;6339748;22;20002;-82
2022/07/30 05:17:11;;;;;;;6.47;4.70;;;25.00;86.30;;;;;;6339648;22;19999;-82
2022/07/30 05:19:37;;;;;;;6.90;5.45;;;25.00;86.40;;;;;;6340139;22;20009;-81
2022/07/30 05:22:03;;;;;;;7.93;7.13;;;25.10;86.40;;;;;;6340523;22;20025;-82
2022/07/30 05:24:29;;;;;;;8.05;6.43;;;25.00;86.10;;;;;;6339246;22;20034;-82
2022/07/30 05:26:54;;;;;;;6.07;5.32;;;25.00;86.10;;;;;;6339340;22;20070;-81
2022/07/30 05:29:20;;;;;;;7.75;6.28;;;24.90;86.10;;;;;;6339070;22;20009;-82
2022/07/30 05:31:46;;;;;;;6.75;5.15;;;25.00;86.20;;;;;;6339346;22;20406;-82
2022/07/30 05:34:12;;;;;;;9.30;5.95;;;25.00;86.10;;;;;;6339224;22;20010;-82
2022/07/30 05:36:37;;;;;;;7.07;5.47;;;25.10;86.30;;;;;;6340253;22;20329;-81
2022/07/30 05:39:03;;;;;;;8.88;5.55;;;25.20;86.50;;;;;;6339968;22;20048;-80
2022/07/30 05:41:29;;;;;;;6.32;5.40;;;25.20;86.50;;;;;;6311762;22;20013;-82
2022/07/30 05:43:55;;;;;;;9.48;6.03;;;25.30;86.30;;;;;;6339704;22;20434;-82
2022/07/30 05:46:21;;;;;;;7.97;6.25;;;25.30;86.10;;;;;;6339643;22;20077;-82
2022/07/30 05:48:47;;;;;;;8.77;6.90;;;25.30;85.50;;;;;;6338732;22;20409;-82
2022/07/30 05:51:13;;;;;;;6.45;5.47;;;25.40;85.30;;;;;;6338968;22;20018;-82
2022/07/30 05:53:39;;;;;;;5.68;5.07;;;25.30;85.10;;;;;;6311140;22;20373;-82
2022/07/30 05:56:05;;;;;;;6.53;5.20;;;25.30;85.20;;;;;;6339961;22;20003;-81
2022/07/30 05:58:30;;;;;;;7.53;5.80;;;25.40;85.50;;;;;;6338504;22;20003;-82
2022/07/30 06:00:56;;;;;;;9.07;6.03;;;25.40;85.40;;;;;;6338427;22;20038;-82
2022/07/30 06:03:22;;;;;;;8.57;4.95;;;25.50;85.30;;;;;;6338787;22;20005;-82
2022/07/30 06:05:47;;;;;;;6.55;5.68;;;25.50;84.80;;;;;;6339698;22;19999;-82
2022/07/30 06:08:13;;;;;;;5.05;4.55;;;25.60;84.30;;;;;;6339084;22;20082;-82
2022/07/30 06:10:38;;;;;;;8.13;5.40;;;25.60;84.20;;;;;;6339583;22;20029;-82
2022/07/30 06:13:04;;;;;;;5.72;4.70;;;25.60;84.00;;;;;;6312073;22;20488;-81
2022/07/30 06:15:30;;;;;;;6.25;4.50;;;25.60;83.70;;;;;;6338484;22;20003;-82
2022/07/30 06:17:55;;;;;;;6.85;4.63;;;25.70;83.70;;;;;;6339779;22;20421;-81
2022/07/30 06:20:21;;;;;;;7.20;4.45;;;25.70;83.50;;;;;;6337777;22;20003;-81
2022/07/30 06:22:47;;;;;;;7.30;4.32;;;25.70;83.40;;;;;;6339908;22;20321;-81
2022/07/30 06:25:13;;;;;;;6.05;4.13;;;25.80;83.20;;;;;;6337549;22;20073;-81
2022/07/30 06:27:39;;;;;;;6.05;3.90;;;25.80;82.90;;;;;;6339016;22;20042;-81
2022/07/30 06:30:07;;;;;;;3.67;3.38;;;25.80;82.80;;;;;;6310873;22;20384;-81
2022/07/30 06:32:33;;;;;;;6.90;4.68;;;25.90;82.80;;;;;;6339076;22;20287;-82
2022/07/30 06:34:59;;;;;;;6.30;3.78;;;25.90;82.40;;;;;;6339398;22;20007;-81
2022/07/30 06:37:25;;;;;;;3.97;3.50;;;25.90;82.10;;;;;;6339459;22;19998;-81
2022/07/30 06:39:51;;;;;;;7.20;3.53;;;25.90;82.20;;;;;;6338267;22;19998;-82
2022/07/30 06:42:16;;;;;;;5.03;4.07;;;25.90;82.10;;;;;;6338876;22;20120;-81
2022/07/30 06:44:42;;;;;;;5.20;3.90;;;26.00;82.10;;;;;;6338481;22;20048;-81
2022/07/30 06:47:08;;;;;;;6.40;3.92;;;26.00;81.90;;;;;;6338821;22;19995;-81
2022/07/30 06:49:35;;;;;;;8.85;4.22;;;26.00;81.50;;;;;;6338642;22;20002;-82
2022/07/30 06:52:01;;;;;;;3.85;3.33;;;26.10;81.70;;;;;;6337907;22;19995;-81
2022/07/30 06:54:27;;;;;;;6.30;3.28;;;26.10;81.00;;;;;;6310852;22;20007;-81
2022/07/30 06:56:53;;;;;;;4.40;3.67;;;26.10;81.10;;;;;;6338630;22;20002;-82
2022/07/30 06:59:18;;;;;;;4.97;3.58;;;26.10;80.30;;;;;;6311287;22;20084;-81
2022/07/30 07:01:44;;;;;;;5.43;3.40;;;26.10;80.60;;;;;;6338148;22;20014;-81
2022/07/30 07:04:10;;;;;;;6.88;4.20;;;26.10;80.80;;;;;;6339283;22;20417;-81
2022/07/30 07:06:36;;;;;;;5.15;4.50;;;26.10;80.80;;;;;;6338646;22;20003;-82
2022/07/30 07:09:03;;;;;;;6.13;3.40;;;26.10;80.00;;;;;;6339139;22;20455;-82
2022/07/30 07:11:28;;;;;;;6.05;4.25;;;26.10;80.40;;;;;;6339209;22;19994;-81
2022/07/30 07:13:54;;;;;;;5.25;3.30;;;26.20;80.60;;;;;;6339432;22;20006;-81
2022/07/30 07:16:23;;;;;;;3.83;2.70;;;26.20;80.30;;;;;;6338210;22;20367;-81
2022/07/30 07:18:52;;;;;;;4.80;3.25;;;26.30;80.40;;;;;;6339083;22;20032;-85
2022/07/30 07:21:18;;;;;;;7.40;5.18;;;26.30;80.30;;;;;;6339380;22;20006;-86
2022/07/30 07:23:44;;;;;;;7.63;4.03;;;26.30;80.90;;;;;;6338715;22;19999;-86
2022/07/30 07:26:11;;;;;;;6.05;5.00;;;26.20;80.50;;;;;;6339129;22;19998;-86
2022/07/30 07:28:37;;;;;;;4.50;3.88;;;26.20;81.00;;;;;;6339383;22;20066;-85
2022/07/30 07:31:03;;;;;;;6.53;4.32;;;26.20;81.10;;;;;;6338009;22;20028;-86
2022/07/30 07:33:28;;;;;;;6.10;4.82;;;26.20;80.40;;;;;;6338933;22;19999;-86
2022/07/30 07:35:54;;;;;;;6.50;4.10;;;26.10;80.00;;;;;;6339273;22;19995;-86
2022/07/30 07:38:21;;;;;;;5.03;3.47;;;26.10;79.70;;;;;;6311763;22;20344;-86
2022/07/30 07:40:47;;;;;;;4.00;2.83;;;26.10;80.00;;;;;;6338633;22;20061;-85
2022/07/30 07:43:13;;;;;;;4.78;3.53;;;26.20;79.90;;;;;;6339344;22;20295;-85
2022/07/30 07:45:40;;;;;;;5.72;3.60;;;26.30;80.20;;;;;;6339532;22;20006;-86
2022/07/30 07:48:06;;;;;;;9.65;6.20;;;26.40;80.70;;;;;;6338938;22;19999;-86
2022/07/30 07:50:32;;;;;;;5.68;5.03;;;26.40;81.30;;;;;;6339319;22;20360;-85
2022/07/30 07:52:58;;;;;;;7.20;5.85;;;26.50;81.00;;;;;;6339021;22;20003;-86
2022/07/30 07:55:24;;;;;;;11.63;8.27;;;26.50;81.10;;;;;;6339256;22;20482;-86
2022/07/30 07:57:50;;;;;;;8.30;7.43;;;26.50;80.90;;;;;;6338969;22;20427;-80
2022/07/30 08:00:19;;;;;;;6.65;4.70;;;26.30;80.80;;;;;;6338429;22;20003;-80
2022/07/30 08:02:46;;;;;;;7.50;5.80;;;26.40;80.90;;;;;;6337466;22;20140;-80
2022/07/30 08:05:11;;;;;;;4.57;4.07;;;26.40;81.00;;;;;;6338059;22;20003;-80
2022/07/30 08:07:41;;;;;;;9.88;4.38;;;26.40;80.90;;;;;;6338529;22;19999;-74
2022/07/30 08:10:08;;;;;;;7.60;4.83;;;26.40;80.70;;;;;;6337882;22;20022;-74
2022/07/30 08:12:34;;;;;;;11.50;6.95;;;26.50;80.80;;;;;;6336038;22;20213;-74
2022/07/30 08:15:00;;;;;;;5.65;4.85;;;26.40;79.70;;;;;;6337366;22;20072;-74
2022/07/30 08:17:25;;;;;;;5.80;4.18;;;26.40;79.90;;;;;;6337745;22;20018;-74
2022/07/30 08:19:52;;;;;;;6.43;3.67;;;26.50;79.90;;;;;;6337509;22;19999;-75
2022/07/30 08:22:17;;;;;;;5.38;3.17;;;26.60;79.70;;;;;;6337625;22;20082;-74
2022/07/30 08:24:43;;;;;;;4.82;3.35;;;26.70;79.40;;;;;;6338515;22;20060;-74
2022/07/30 08:27:09;;;;;;;5.53;3.90;;;26.80;79.10;;;;;;6337931;22;20006;-74
2022/07/30 08:29:35;;;;;;;6.07;4.00;;;26.90;78.50;;;;;;6337463;22;20022;-74
2022/07/30 08:32:02;;;;;;;8.15;4.88;;;27.00;78.00;;;;;;6335489;22;20006;-74
2022/07/30 08:34:28;;;;;;;4.47;4.07;;;27.10;77.80;;;;;;6337427;22;20028;-74
2022/07/30 08:36:54;;;;;;;3.70;3.40;;;27.20;77.30;;;;;;6338212;22;19994;-74
2022/07/30 08:39:20;;;;;;;3.88;2.90;;;27.30;77.10;;;;;;6338446;22;20420;-75
2022/07/30 08:41:46;;;;;;;2.67;2.45;;;27.40;76.80;;;;;;6337549;22;20009;-74
2022/07/30 08:44:16;;;;;;;3.15;2.85;;;27.50;76.80;;;;;;6310283;22;20067;-74
2022/07/30 08:46:42;;;;;;;6.65;5.05;;;27.70;76.80;;;;;;6338304;22;20329;-74
2022/07/30 08:49:10;;;;;;;5.68;3.60;;;27.80;74.80;;;;;;6309862;22;20421;-75
2022/07/30 08:51:37;;;;;;;3.30;2.67;;;27.70;75.00;;;;;;6336930;22;19999;-74
2022/07/30 08:54:05;;;;;;;4.78;3.30;;;27.80;75.70;;;;;;6337282;22;20013;-75
2022/07/30 08:56:32;;;;;;;3.13;2.83;;;27.90;75.80;;;;;;6336122;22;20007;-75
2022/07/30 08:58:59;;;;;;;3.80;3.28;;;28.00;75.60;;;;;;6335582;22;20367;-75
2022/07/30 09:01:25;;;;;;;4.28;3.50;;;28.00;74.80;;;;;;6334914;22;20015;-74
2022/07/30 09:03:50;;;;;;;8.38;6.03;;;28.10;75.10;;;;;;6310234;22;20015;-81
2022/07/30 09:06:16;;;;;;;6.72;3.17;;;28.20;73.00;;;;;;6338671;22;20436;-81
2022/07/30 09:08:44;;;;;;;5.82;3.50;;;28.20;74.00;;;;;;6338943;22;20302;-81
2022/07/30 09:11:13;;;;;;;3.90;2.50;;;28.20;73.70;;;;;;6338195;22;20030;-81
2022/07/30 09:13:41;;;;;;;5.82;3.55;;;28.30;74.00;;;;;;6337947;22;19999;-75
2022/07/30 09:16:21;;;;;;;5.43;4.35;;;28.40;73.90;;;;;;6338274;22;19995;-75
2022/07/30 09:18:48;;;;;;;4.93;3.55;;;28.60;73.40;;;;;;6311396;22;20291;-74
2022/07/30 09:21:25;;;;;;;3.97;3.55;;;28.70;73.50;;;;;;6338669;22;20123;-75
2022/07/30 09:24:11;;;;;;;8.32;5.75;;;28.80;73.50;;;;;;6337019;22;20010;-75
2022/07/30 09:27:03;;;;;;;7.22;4.90;;;28.80;70.60;;;;;;6337500;22;19995;-75
2022/07/30 09:29:30;;;;;;;4.05;3.35;;;28.80;71.50;;;;;;6338667;22;20478;-74
2022/07/30 09:32:01;;;;;;;3.58;2.90;;;28.80;72.20;;;;;;6310226;22;20080;-75
2022/07/30 09:34:33;;;;;;;7.18;5.20;;;28.90;72.40;;;;;;6337720;22;20082;-74
2022/07/30 09:37:15;;;;;;;4.90;4.25;;;29.10;72.60;;;;;;6337700;22;20056;-74
2022/07/30 09:39:41;;;;;;;7.75;6.32;;;29.20;72.10;;;;;;6338859;22;20362;-75
2022/07/30 09:42:26;;;;;;;6.57;4.47;;;29.20;70.60;;;;;;6338306;22;20078;-75
2022/07/30 09:45:13;;;;;;;5.47;3.75;;;29.30;71.40;;;;;;6337798;22;19999;-74
2022/07/30 09:47:48;;;;;;;5.35;3.95;;;29.40;71.30;;;;;;6338157;22;20025;-74
2022/07/30 09:50:15;;;;;;;4.68;3.83;;;29.50;71.70;;;;;;6337946;22;20074;-74
2022/07/30 09:52:44;;;;;;;4.40;3.72;;;29.70;71.90;;;;;;6337963;22;20006;-75
2022/07/30 09:55:10;;;;;;;3.20;2.90;;;29.80;71.30;;;;;;6337886;22;20029;-75
2022/07/30 09:58:03;;;;;;;5.70;3.17;;;29.90;71.00;;;;;;6338243;22;20006;-74
2022/07/30 10:00:31;;;;;;;4.43;3.85;;;30.00;70.20;;;;;;6338033;22;20010;-74
2022/07/30 10:02:59;;;;;;;7.53;5.20;;;30.20;69.70;;;;;;6337979;22;20374;-74
2022/07/30 10:05:26;;;;;;;6.78;3.90;;;30.20;68.60;;;;;;6337570;22;20002;-75
2022/07/30 10:08:02;;;;;;;5.10;3.25;;;30.20;68.80;;;;;;6338027;22;20079;-75
2022/07/30 10:10:29;;;;;;;3.63;3.33;;;30.30;68.90;;;;;;6338030;22;19995;-75
2022/07/30 10:13:01;;;;;;;8.20;5.95;;;30.40;68.80;;;;;;6337737;22;20424;-74
2022/07/30 10:15:35;;;;;;;4.85;3.35;;;30.40;66.40;;;;;;6337676;22;20003;-75
2022/07/30 10:18:03;;;;;;;5.75;4.25;;;30.50;67.40;;;;;;6310648;22;20007;-75
2022/07/30 10:20:28;;;;;;;5.47;3.65;;;30.50;66.20;;;;;;6337951;22;20006;-75
2022/07/30 10:22:55;;;;;;;5.97;3.05;;;30.50;66.30;;;;;;6337620;22;20026;-75
2022/07/30 10:25:23;;;;;;;2.85;2.55;;;30.60;66.60;;;;;;6336785;22;20030;-72
2022/07/30 10:27:49;;;;;;;3.35;2.42;;;30.70;65.90;;;;;;6339302;22;19995;-72
2022/07/30 10:30:16;;;;;;;2.45;2.10;;;30.70;64.60;;;;;;6338564;22;20010;-78
2022/07/30 10:32:43;;;;;;;3.20;2.90;;;30.80;64.60;;;;;;6338238;22;20002;-77
2022/07/30 10:35:09;;;;;;;3.08;2.42;;;30.90;63.20;;;;;;6337332;22;20006;-77
2022/07/30 10:37:39;;;;;;;2.72;2.42;;;31.00;63.50;;;;;;6337305;22;20002;-78
2022/07/30 10:40:25;;;;;;;2.58;2.35;;;31.10;64.00;;;;;;6337903;22;20006;-78
2022/07/30 10:43:15;;;;;;;4.15;2.53;;;31.20;63.50;;;;;;6338163;22;20005;-72
2022/07/30 10:45:52;;;;;;;;;;;31.40;63.10;;;;;;6339158;22;20002;-72
2022/07/30 10:48:18;;;;;;;2.78;2.05;;;31.60;62.80;;;;;;6338710;22;19906;-72
2022/07/30 10:50:55;;;;;;;3.17;2.40;;;31.70;61.80;;;;;;6338455;22;19999;-72
2022/07/30 10:53:46;;;;;;;3.53;2.42;;;31.70;61.00;;;;;;6338154;22;20448;-72
2022/07/30 10:56:19;;;;;;;3.85;1.95;;;31.70;60.00;;;;;;6338437;22;20025;-72
2022/07/30 10:59:07;;;;;;;2.00;1.80;;;31.70;60.80;;;;;;6338756;22;20029;-72
2022/07/30 11:01:48;;;;;;;2.70;1.90;;;31.80;58.90;;;;;;6310549;22;20023;-72
2022/07/30 11:04:21;;;;;;;3.55;1.80;;;31.90;59.10;;;;;;6338656;22;20082;-72
2022/07/30 11:06:47;;;;;;;2.70;1.60;;;32.10;59.30;;;;;;6338663;22;20049;-72
2022/07/30 11:09:36;;;;;;;1.30;1.20;;;32.20;59.40;;;;;;6338859;22;20007;-72
2022/07/30 11:12:03;;;;;;;1.33;1.17;;;32.40;58.10;;;;;;6337831;22;20065;-72
2022/07/30 11:14:46;;;;;;;1.75;1.35;;;32.60;57.80;;;;;;6338338;22;20333;-72
2022/07/30 11:17:17;;;;;;;1.80;1.70;;;32.80;55.60;;;;;;6338503;22;20417;-72
2022/07/30 11:20:01;;;;;;;2.30;1.63;;;32.80;53.40;;;;;;6338315;22;20099;-72
2022/07/30 11:22:30;;;;;;;2.30;1.70;;;33.00;55.20;;;;;;6338163;22;20002;-72
2022/07/30 11:24:56;;;;;;;1.48;1.38;;;33.20;53.30;;;;;;6338370;22;20010;-72
2022/07/30 11:27:51;;;;;;;1.63;1.52;;;33.40;54.80;;;;;;6338661;22;19995;-72
2022/07/30 11:30:20;;;;;;;2.35;1.40;;;33.60;51.50;;;;;;6318423;22;19999;-72
2022/07/30 11:32:53;;;;;;;2.03;1.48;;;33.70;54.00;;;;;;6337818;22;20003;-74
2022/07/30 11:35:27;;;;;;;1.50;1.40;;;33.80;53.30;;;;;;6337920;22;20006;-74
2022/07/30 11:38:03;;;;;;;3.28;2.38;;;34.10;53.40;;;;;;6337830;22;19999;-74
2022/07/30 11:40:30;;;;;;;2.30;1.92;;;34.40;51.40;;;;;;6337882;22;20026;-74
2022/07/30 11:43:25;;;;;;;1.77;1.63;;;34.60;52.50;;;;;;6337498;22;20003;-74
2022/07/30 11:46:09;;;;;;;2.08;1.77;;;34.90;51.20;;;;;;6338465;22;19999;-74
2022/07/30 11:48:36;;;;;;;2.22;1.63;;;35.40;51.20;;;;;;6338496;22;20052;-75
2022/07/30 11:51:03;;;;;;;2.35;1.77;;;35.70;51.90;;;;;;6337712;22;20002;-74
2022/07/30 11:53:29;;;;;;;2.97;1.67;;;36.00;50.20;;;;;;6338201;22;20029;-74
2022/07/30 11:55:59;;;;;;;2.80;1.90;;;36.20;50.30;;;;;;6338645;22;19995;-74
2022/07/30 11:58:30;;;;;;;3.60;2.13;;;36.50;50.10;;;;;;6338609;22;20096;-75
2022/07/30 12:01:00;;;;;;;4.32;2.33;;;36.70;49.20;;;;;;6338569;22;20507;-75
2022/07/30 12:03:27;;;;;;;2.97;1.75;;;37.00;48.00;;;;;;6338096;22;19999;-75
2022/07/30 12:05:53;;;;;;;1.80;1.67;;;37.10;48.20;;;;;;6338271;22;20033;-75
2022/07/30 12:08:20;;;;;;;3.00;2.20;;;37.30;48.10;;;;;;6337688;22;19995;-75
2022/07/30 12:10:58;;;;;;;2.55;2.20;;;37.40;46.60;;;;;;6338341;22;20421;-80
2022/07/30 12:13:24;;;;;;;5.57;2.28;;;37.70;46.00;;;;;;6337172;22;20364;-81
2022/07/30 12:15:50;;;;;;;4.18;2.40;;;37.70;45.30;;;;;;6337941;22;20059;-78
2022/07/30 12:18:28;;;;;;;4.53;2.17;;;37.80;45.60;;;;;;6337350;22;20010;-78
2022/07/30 12:20:59;;;;;;;2.05;1.52;;;37.90;45.30;;;;;;6338232;22;20007;-78
2022/07/30 12:23:25;;;;;;;1.88;1.70;;;37.90;44.90;;;;;;6338695;22;20374;-78
2022/07/30 12:25:51;;;;;;;2.50;2.03;;;38.00;45.40;;;;;;6338184;22;20003;-78
2022/07/30 12:28:23;;;;;;;2.58;1.40;;;38.00;43.60;;;;;;6337557;22;20077;-80
2022/07/30 12:30:50;;;;;;;3.58;0.77;;;38.10;44.50;;;;;;6338098;22;19999;-79
2022/07/30 12:33:16;;;;;;;1.55;1.02;;;38.20;43.20;;;;;;6338204;22;20026;-80
2022/07/30 12:35:50;;;;;;;1.15;1.00;;;38.40;43.20;;;;;;6338119;22;20052;-80
2022/07/30 12:38:17;;;;;;;1.08;0.75;;;38.50;42.90;;;;;;6339717;22;20005;-79
2022/07/30 12:40:55;;;;;;;2.22;0.85;;;38.60;41.40;;;;;;6339623;22;20010;-80
2022/07/30 12:43:44;;;;;;;1.08;1.00;;;38.80;38.60;;;;;;6339709;22;20005;-79
2022/07/30 12:46:15;;;;;;;0.90;0.90;;;38.80;39.30;;;;;;6340045;22;20036;-79
2022/07/30 12:48:57;;;;;;;1.17;0.63;;;38.80;39.70;;;;;;6337677;22;20030;-79
2022/07/30 12:51:28;;;;;;;0.90;0.90;;;38.80;37.60;;;;;;6339084;22;20002;-79
2022/07/30 12:53:55;;;;;;;0.45;0.40;;;38.80;36.70;;;;;;6339868;22;20428;-79
2022/07/30 12:56:23;;;;;;;1.00;0.40;;;38.80;37.80;;;;;;6339930;22;20002;-79
2022/07/30 12:58:50;;;;;;;0.50;0.50;;;38.90;37.10;;;;;;6339115;22;20421;-79
2022/07/30 13:01:16;;;;;;;0.90;0.60;;;38.90;37.50;;;;;;6339007;22;20002;-79